Ever Lovely — 9V9793 — position and weather

sailwx.info

Track history (hours):
 
Tides and Currents Weather Stations Pressure Air Temp Water Temp Dewpoint Dewpoint Depression Visibility Wind Speed Wind Dir Waves Ship Positions

Ever Lovely

Last reported at 2018-Jun-23 01:39 UTC. Time now 2018-Jun-23 15:24 UTC.
Position N 22°20' E 114°08'.

Length 335 m; draft 11.7 m.

Type: Ship (hazmat cat A). MMSI: 563033000.

Date/timePositionNaut miles runAvg speedWind from/ knotsBaromVisibWave heightAir tempDewpointWater temp
2018-Jun-23 01:39N 22°20' E 114°08'0 0.6
2018-Jun-23 01:27N 22°20' E 114°08'20011.4
2018-Jun-22 07:56N 23°11' E 117°37'612.6
2018-Jun-22 07:27N 23°16' E 117°41'612.7
2018-Jun-22 07:00N 23°21' E 117°44'712.7
2018-Jun-22 06:29N 23°26' E 117°49'613.2
2018-Jun-22 06:00N 23°30' E 117°54'713.3
2018-Jun-22 05:30N 23°34' E 118°00'613.3
2018-Jun-22 05:00N 23°38' E 118°06'612.5
2018-Jun-22 04:29N 23°43' E 118°11'713.6
2018-Jun-22 04:00N 23°49' E 118°13'713.7
2018-Jun-22 03:28N 23°56' E 118°16'713.8
2018-Jun-22 02:59N 24°02' E 118°18'714.0
2018-Jun-22 02:30N 24°09' E 118°19'713.6
2018-Jun-22 02:00N 24°15' E 118°15'713.3
2018-Jun-22 01:30N 24°20' E 118°11'5 9.8
2018-Jun-22 01:01N 24°23' E 118°07'611.8
2018-Jun-22 00:30N 24°26' E 118°01'3 5.8
2018-Jun-21 23:59N 24°27' E 117°58'0 0.0
2018-Jun-21 23:29N 24°27' E 117°58'0 0.0
2018-Jun-21 22:59N 24°27' E 117°58'0 0.0
2018-Jun-21 22:29N 24°27' E 117°58'0 0.0
2018-Jun-21 21:59N 24°27' E 117°58'0 0.0
2018-Jun-21 21:29N 24°27' E 117°58'0 0.0
2018-Jun-21 20:59N 24°27' E 117°58'0 0.0
2018-Jun-21 20:29N 24°27' E 117°58'0 0.0
2018-Jun-21 19:59N 24°27' E 117°58'0 0.0
2018-Jun-21 19:29N 24°27' E 117°58'0 0.0
2018-Jun-21 18:59N 24°27' E 117°58'0 0.1
2018-Jun-21 18:29N 24°27' E 117°58'0 0.1
2018-Jun-21 17:59N 24°27' E 117°58'0 0.0
2018-Jun-21 17:29N 24°27' E 117°58'0 0.0
2018-Jun-21 16:59N 24°27' E 117°58'0 0.0
2018-Jun-21 16:29N 24°27' E 117°58'0 0.0
2018-Jun-21 15:59N 24°27' E 117°58'0 0.0
2018-Jun-21 15:29N 24°27' E 117°58'0 0.0
2018-Jun-21 14:59N 24°27' E 117°58'0 0.0
2018-Jun-21 14:29N 24°27' E 117°58'0 0.0
2018-Jun-21 13:59N 24°27' E 117°58'0 0.0
2018-Jun-21 13:29N 24°27' E 117°58'0 0.0
2018-Jun-21 12:59N 24°27' E 117°58'0 0.0
2018-Jun-21 12:29N 24°27' E 117°58'0 0.0
2018-Jun-21 11:56N 24°27' E 117°58'0 0.0
2018-Jun-21 11:29N 24°27' E 117°58'0 0.0
2018-Jun-21 10:59N 24°27' E 117°58'0 0.0
2018-Jun-21 10:29N 24°27' E 117°58'0 0.0
2018-Jun-21 09:59N 24°27' E 117°58'0 0.0
2018-Jun-21 09:29N 24°27' E 117°58'0 0.0
2018-Jun-21 08:59N 24°27' E 117°58'0 0.0
2018-Jun-21 08:29N 24°27' E 117°58'0 0.0
2018-Jun-21 07:59N 24°27' E 117°58'0 0.0
2018-Jun-21 07:30N 24°27' E 117°58'1 1.9
2018-Jun-21 07:00N 24°27' E 117°59'5 9.9
2018-Jun-21 06:31N 24°25' E 118°04'510.8
2018-Jun-21 06:00N 24°22' E 118°09'4 8.3
2018-Jun-21 05:30N 24°19' E 118°12'612.6
2018-Jun-21 05:00N 24°14' E 118°17'612.9
2018-Jun-21 04:31N 24°08' E 118°18'714.2
2018-Jun-21 04:01N 24°01' E 118°18'816.3
2018-Jun-21 03:30N 23°53' E 118°14'816.0
2018-Jun-21 03:00N 23°46' E 118°11'1015.3
2018-Jun-21 02:23N 23°37' E 118°07'615.2
2018-Jun-21 01:58N 23°32' E 118°03'1115.5
2018-Jun-21 01:15N 23°23' E 117°56'415.3
2018-Jun-21 00:59N 23°19' E 117°54'715.3
2018-Jun-21 00:30N 23°13' E 117°50'  
2018-Jun-17 03:25N 01°29' E 104°33'715.1
2018-Jun-17 02:57N 01°24' E 104°28'715.6
2018-Jun-17 02:30N 01°20' E 104°22'815.3
2018-Jun-17 01:58N 01°16' E 104°15'816.7
2018-Jun-17 01:30N 01°15' E 104°07'816.4
2018-Jun-17 01:00N 01°14' E 103°59'713.9
2018-Jun-17 00:30N 01°12' E 103°53'510.0
2018-Jun-17 00:00N 01°09' E 103°48'611.0
2018-Jun-16 23:30N 01°06' E 103°44'612.6
2018-Jun-16 23:00N 01°03' E 103°38'612.8
2018-Jun-16 22:30N 01°06' E 103°33'714.0
2018-Jun-16 22:00N 01°09' E 103°27'713.4
2018-Jun-16 21:30N 01°13' E 103°21'814.0
2018-Jun-16 20:58N 01°19' E 103°16'714.3
2018-Jun-16 20:27N 01°24' E 103°10'713.7
2018-Jun-16 19:58N 01°27' E 103°05'  
Track history (hours):
 
Tides and Currents Weather Stations Pressure Air Temp Water Temp Dewpoint Dewpoint Depression Visibility Wind Speed Wind Dir Waves Ship Positions

Ever Lovely

Last reported at 2018-Jun-23 01:39 UTC. Time now 2018-Jun-23 15:24 UTC.
Position N 22°20' E 114°08'.

Length 335 m; draft 11.7 m.

Type: Ship (hazmat cat A). MMSI: 563033000.

Date/timePositionNaut miles runAvg speedWind from/ knotsBaromVisibWave heightAir tempDewpointWater temp
2018-Jun-23 01:39N 22°20' E 114°08'0 0.6
2018-Jun-23 01:27N 22°20' E 114°08'20011.4
2018-Jun-22 07:56N 23°11' E 117°37'612.6
2018-Jun-22 07:27N 23°16' E 117°41'612.7
2018-Jun-22 07:00N 23°21' E 117°44'712.7
2018-Jun-22 06:29N 23°26' E 117°49'613.2
2018-Jun-22 06:00N 23°30' E 117°54'713.3
2018-Jun-22 05:30N 23°34' E 118°00'613.3
2018-Jun-22 05:00N 23°38' E 118°06'612.5
2018-Jun-22 04:29N 23°43' E 118°11'713.6
2018-Jun-22 04:00N 23°49' E 118°13'713.7
2018-Jun-22 03:28N 23°56' E 118°16'713.8
2018-Jun-22 02:59N 24°02' E 118°18'714.0
2018-Jun-22 02:30N 24°09' E 118°19'713.6
2018-Jun-22 02:00N 24°15' E 118°15'713.3
2018-Jun-22 01:30N 24°20' E 118°11'5 9.8
2018-Jun-22 01:01N 24°23' E 118°07'611.8
2018-Jun-22 00:30N 24°26' E 118°01'3 5.8
2018-Jun-21 23:59N 24°27' E 117°58'0 0.0
2018-Jun-21 23:29N 24°27' E 117°58'0 0.0
2018-Jun-21 22:59N 24°27' E 117°58'0 0.0
2018-Jun-21 22:29N 24°27' E 117°58'0 0.0
2018-Jun-21 21:59N 24°27' E 117°58'0 0.0
2018-Jun-21 21:29N 24°27' E 117°58'0 0.0
2018-Jun-21 20:59N 24°27' E 117°58'0 0.0
2018-Jun-21 20:29N 24°27' E 117°58'0 0.0
2018-Jun-21 19:59N 24°27' E 117°58'0 0.0
2018-Jun-21 19:29N 24°27' E 117°58'0 0.0
2018-Jun-21 18:59N 24°27' E 117°58'0 0.1
2018-Jun-21 18:29N 24°27' E 117°58'0 0.1
2018-Jun-21 17:59N 24°27' E 117°58'0 0.0
2018-Jun-21 17:29N 24°27' E 117°58'0 0.0
2018-Jun-21 16:59N 24°27' E 117°58'0 0.0
2018-Jun-21 16:29N 24°27' E 117°58'0 0.0
2018-Jun-21 15:59N 24°27' E 117°58'0 0.0
2018-Jun-21 15:29N 24°27' E 117°58'0 0.0
2018-Jun-21 14:59N 24°27' E 117°58'0 0.0
2018-Jun-21 14:29N 24°27' E 117°58'0 0.0
2018-Jun-21 13:59N 24°27' E 117°58'0 0.0
2018-Jun-21 13:29N 24°27' E 117°58'0 0.0
2018-Jun-21 12:59N 24°27' E 117°58'0 0.0
2018-Jun-21 12:29N 24°27' E 117°58'0 0.0
2018-Jun-21 11:56N 24°27' E 117°58'0 0.0
2018-Jun-21 11:29N 24°27' E 117°58'0 0.0
2018-Jun-21 10:59N 24°27' E 117°58'0 0.0
2018-Jun-21 10:29N 24°27' E 117°58'0 0.0
2018-Jun-21 09:59N 24°27' E 117°58'0 0.0
2018-Jun-21 09:29N 24°27' E 117°58'0 0.0
2018-Jun-21 08:59N 24°27' E 117°58'0 0.0
2018-Jun-21 08:29N 24°27' E 117°58'0 0.0
2018-Jun-21 07:59N 24°27' E 117°58'0 0.0
2018-Jun-21 07:30N 24°27' E 117°58'1 1.9
2018-Jun-21 07:00N 24°27' E 117°59'5 9.9
2018-Jun-21 06:31N 24°25' E 118°04'510.8
2018-Jun-21 06:00N 24°22' E 118°09'4 8.3
2018-Jun-21 05:30N 24°19' E 118°12'612.6
2018-Jun-21 05:00N 24°14' E 118°17'612.9
2018-Jun-21 04:31N 24°08' E 118°18'714.2
2018-Jun-21 04:01N 24°01' E 118°18'816.3
2018-Jun-21 03:30N 23°53' E 118°14'816.0
2018-Jun-21 03:00N 23°46' E 118°11'1015.3
2018-Jun-21 02:23N 23°37' E 118°07'615.2
2018-Jun-21 01:58N 23°32' E 118°03'1115.5
2018-Jun-21 01:15N 23°23' E 117°56'415.3
2018-Jun-21 00:59N 23°19' E 117°54'715.3
2018-Jun-21 00:30N 23°13' E 117°50'  
2018-Jun-17 03:25N 01°29' E 104°33'715.1
2018-Jun-17 02:57N 01°24' E 104°28'715.6
2018-Jun-17 02:30N 01°20' E 104°22'815.3
2018-Jun-17 01:58N 01°16' E 104°15'816.7
2018-Jun-17 01:30N 01°15' E 104°07'816.4
2018-Jun-17 01:00N 01°14' E 103°59'713.9
2018-Jun-17 00:30N 01°12' E 103°53'510.0
2018-Jun-17 00:00N 01°09' E 103°48'611.0
2018-Jun-16 23:30N 01°06' E 103°44'612.6
2018-Jun-16 23:00N 01°03' E 103°38'612.8
2018-Jun-16 22:30N 01°06' E 103°33'714.0
2018-Jun-16 22:00N 01°09' E 103°27'713.4
2018-Jun-16 21:30N 01°13' E 103°21'814.0
2018-Jun-16 20:58N 01°19' E 103°16'714.3
2018-Jun-16 20:27N 01°24' E 103°10'713.7
2018-Jun-16 19:58N 01°27' E 103°05'  

Dump ship's entire track history